sensor_id;sensor_type;location;lat;lon;timestamp;P1;durP1;ratioP1;P2;durP2;ratioP2
65037;SDS011;51605;47.040;15.294;2023-01-30T00:00:27;2.80;;;2.50;;
65037;SDS011;51605;47.040;15.294;2023-01-30T00:02:52;3.35;;;2.63;;
65037;SDS011;51605;47.040;15.294;2023-01-30T00:05:18;3.20;;;2.75;;
65037;SDS011;51605;47.040;15.294;2023-01-30T00:07:45;3.78;;;3.38;;
65037;SDS011;51605;47.040;15.294;2023-01-30T00:10:11;3.10;;;2.75;;
65037;SDS011;51605;47.040;15.294;2023-01-30T00:12:37;3.95;;;2.70;;
65037;SDS011;51605;47.040;15.294;2023-01-30T00:15:02;3.35;;;2.72;;
65037;SDS011;51605;47.040;15.294;2023-01-30T00:17:28;4.10;;;3.20;;
65037;SDS011;51605;47.040;15.294;2023-01-30T00:19:54;3.78;;;3.40;;
65037;SDS011;51605;47.040;15.294;2023-01-30T00:22:20;4.85;;;2.97;;
65037;SDS011;51605;47.040;15.294;2023-01-30T00:24:46;3.70;;;2.65;;
65037;SDS011;51605;47.040;15.294;2023-01-30T00:27:11;4.85;;;4.00;;
65037;SDS011;51605;47.040;15.294;2023-01-30T00:29:37;2.78;;;2.17;;
65037;SDS011;51605;47.040;15.294;2023-01-30T00:32:03;5.00;;;3.60;;
65037;SDS011;51605;47.040;15.294;2023-01-30T00:34:28;3.13;;;2.50;;
65037;SDS011;51605;47.040;15.294;2023-01-30T00:36:54;3.25;;;2.30;;
65037;SDS011;51605;47.040;15.294;2023-01-30T00:39:20;3.08;;;2.47;;
65037;SDS011;51605;47.040;15.294;2023-01-30T00:41:45;3.53;;;3.05;;
65037;SDS011;51605;47.040;15.294;2023-01-30T00:44:30;4.82;;;2.45;;
65037;SDS011;51605;47.040;15.294;2023-01-30T00:47:14;3.67;;;2.50;;
65037;SDS011;51605;47.040;15.294;2023-01-30T00:49:40;2.90;;;2.00;;
65037;SDS011;51605;47.040;15.294;2023-01-30T00:52:06;2.65;;;2.08;;
65037;SDS011;51605;47.040;15.294;2023-01-30T00:54:32;2.95;;;2.25;;
65037;SDS011;51605;47.040;15.294;2023-01-30T00:56:57;2.85;;;2.20;;
65037;SDS011;51605;47.040;15.294;2023-01-30T00:59:23;3.15;;;2.40;;
65037;SDS011;51605;47.040;15.294;2023-01-30T01:01:50;3.53;;;2.27;;
65037;SDS011;51605;47.040;15.294;2023-01-30T01:04:15;3.58;;;2.50;;
65037;SDS011;51605;47.040;15.294;2023-01-30T01:06:41;2.90;;;2.20;;
65037;SDS011;51605;47.040;15.294;2023-01-30T01:09:06;3.53;;;2.67;;
65037;SDS011;51605;47.040;15.294;2023-01-30T01:11:32;3.53;;;3.08;;
65037;SDS011;51605;47.040;15.294;2023-01-30T01:13:59;7.60;;;6.82;;
65037;SDS011;51605;47.040;15.294;2023-01-30T01:16:26;8.32;;;7.57;;
65037;SDS011;51605;47.040;15.294;2023-01-30T01:18:53;8.10;;;7.40;;
65037;SDS011;51605;47.040;15.294;2023-01-30T01:21:19;14.55;;;13.45;;
65037;SDS011;51605;47.040;15.294;2023-01-30T01:23:49;10.43;;;9.60;;
65037;SDS011;51605;47.040;15.294;2023-01-30T01:26:16;16.13;;;15.00;;
65037;SDS011;51605;47.040;15.294;2023-01-30T01:28:41;11.38;;;10.57;;
65037;SDS011;51605;47.040;15.294;2023-01-30T01:31:08;16.38;;;15.25;;
65037;SDS011;51605;47.040;15.294;2023-01-30T01:33:35;11.98;;;11.00;;
65037;SDS011;51605;47.040;15.294;2023-01-30T01:36:00;7.53;;;6.90;;
65037;SDS011;51605;47.040;15.294;2023-01-30T01:38:26;8.43;;;7.72;;
65037;SDS011;51605;47.040;15.294;2023-01-30T01:40:52;8.88;;;8.18;;
65037;SDS011;51605;47.040;15.294;2023-01-30T01:43:27;16.60;;;15.43;;
65037;SDS011;51605;47.040;15.294;2023-01-30T01:46:04;20.67;;;19.27;;
65037;SDS011;51605;47.040;15.294;2023-01-30T01:48:39;3.17;;;2.60;;
65037;SDS011;51605;47.040;15.294;2023-01-30T01:51:16;9.35;;;8.68;;
65037;SDS011;51605;47.040;15.294;2023-01-30T01:53:54;11.23;;;10.38;;
65037;SDS011;51605;47.040;15.294;2023-01-30T01:56:24;5.28;;;4.88;;
65037;SDS011;51605;47.040;15.294;2023-01-30T01:58:51;4.40;;;3.67;;
65037;SDS011;51605;47.040;15.294;2023-01-30T02:01:21;7.50;;;6.90;;
65037;SDS011;51605;47.040;15.294;2023-01-30T02:03:48;5.20;;;4.80;;
65037;SDS011;51605;47.040;15.294;2023-01-30T02:06:18;3.97;;;3.60;;
65037;SDS011;51605;47.040;15.294;2023-01-30T02:08:47;6.32;;;5.82;;
65037;SDS011;51605;47.040;15.294;2023-01-30T02:11:20;11.15;;;10.32;;
65037;SDS011;51605;47.040;15.294;2023-01-30T02:13:47;16.25;;;15.00;;
65037;SDS011;51605;47.040;15.294;2023-01-30T02:16:14;3.92;;;2.42;;
65037;SDS011;51605;47.040;15.294;2023-01-30T02:18:41;7.28;;;6.78;;
65037;SDS011;51605;47.040;15.294;2023-01-30T02:35:23;9.98;;;9.25;;
65037;SDS011;51605;47.040;15.294;2023-01-30T02:45:58;4.20;;;3.80;;
65037;SDS011;51605;47.040;15.294;2023-01-30T02:51:29;3.63;;;2.83;;
65037;SDS011;51605;47.040;15.294;2023-01-30T02:53:59;3.33;;;3.03;;
65037;SDS011;51605;47.040;15.294;2023-01-30T02:56:25;3.40;;;2.90;;
65037;SDS011;51605;47.040;15.294;2023-01-30T02:58:52;4.03;;;3.50;;
65037;SDS011;51605;47.040;15.294;2023-01-30T03:09:35;3.35;;;2.75;;
65037;SDS011;51605;47.040;15.294;2023-01-30T03:14:54;10.77;;;9.98;;
65037;SDS011;51605;47.040;15.294;2023-01-30T03:17:34;3.13;;;2.83;;
65037;SDS011;51605;47.040;15.294;2023-01-30T03:20:04;3.10;;;2.75;;
65037;SDS011;51605;47.040;15.294;2023-01-30T03:22:31;2.70;;;2.15;;
65037;SDS011;51605;47.040;15.294;2023-01-30T03:24:56;5.93;;;5.47;;
65037;SDS011;51605;47.040;15.294;2023-01-30T03:27:22;13.98;;;12.95;;
65037;SDS011;51605;47.040;15.294;2023-01-30T03:29:48;5.03;;;4.63;;
65037;SDS011;51605;47.040;15.294;2023-01-30T03:32:14;5.82;;;5.32;;
65037;SDS011;51605;47.040;15.294;2023-01-30T03:34:39;3.22;;;2.70;;
65037;SDS011;51605;47.040;15.294;2023-01-30T03:37:05;2.90;;;2.53;;
65037;SDS011;51605;47.040;15.294;2023-01-30T03:39:31;7.05;;;6.45;;
65037;SDS011;51605;47.040;15.294;2023-01-30T03:41:57;3.53;;;3.17;;
65037;SDS011;51605;47.040;15.294;2023-01-30T03:44:22;2.45;;;1.92;;
65037;SDS011;51605;47.040;15.294;2023-01-30T03:46:48;3.30;;;2.30;;
65037;SDS011;51605;47.040;15.294;2023-01-30T03:49:13;2.55;;;2.08;;
65037;SDS011;51605;47.040;15.294;2023-01-30T03:51:39;2.45;;;2.00;;
65037;SDS011;51605;47.040;15.294;2023-01-30T03:54:05;3.00;;;2.67;;
65037;SDS011;51605;47.040;15.294;2023-01-30T03:56:30;2.92;;;2.00;;
65037;SDS011;51605;47.040;15.294;2023-01-30T03:58:56;2.75;;;2.03;;
65037;SDS011;51605;47.040;15.294;2023-01-30T04:01:22;2.17;;;1.65;;
65037;SDS011;51605;47.040;15.294;2023-01-30T04:03:47;4.72;;;4.32;;
65037;SDS011;51605;47.040;15.294;2023-01-30T04:06:13;2.38;;;1.85;;
65037;SDS011;51605;47.040;15.294;2023-01-30T04:08:39;3.00;;;2.65;;
65037;SDS011;51605;47.040;15.294;2023-01-30T04:11:04;2.70;;;2.10;;
65037;SDS011;51605;47.040;15.294;2023-01-30T04:13:30;2.53;;;2.00;;
65037;SDS011;51605;47.040;15.294;2023-01-30T04:18:41;2.20;;;1.70;;
65037;SDS011;51605;47.040;15.294;2023-01-30T04:21:07;3.22;;;2.75;;
65037;SDS011;51605;47.040;15.294;2023-01-30T04:23:33;3.88;;;3.38;;
65037;SDS011;51605;47.040;15.294;2023-01-30T04:25:58;2.75;;;2.33;;
65037;SDS011;51605;47.040;15.294;2023-01-30T04:28:24;2.67;;;2.05;;
65037;SDS011;51605;47.040;15.294;2023-01-30T04:30:51;3.42;;;3.13;;
65037;SDS011;51605;47.040;15.294;2023-01-30T04:33:17;3.15;;;2.78;;
65037;SDS011;51605;47.040;15.294;2023-01-30T04:35:52;2.65;;;2.08;;
65037;SDS011;51605;47.040;15.294;2023-01-30T04:38:18;2.72;;;2.30;;
65037;SDS011;51605;47.040;15.294;2023-01-30T04:40:51;2.20;;;1.87;;
65037;SDS011;51605;47.040;15.294;2023-01-30T04:43:18;3.00;;;2.70;;
65037;SDS011;51605;47.040;15.294;2023-01-30T04:45:46;2.40;;;1.95;;
65037;SDS011;51605;47.040;15.294;2023-01-30T04:50:39;3.13;;;2.83;;
65037;SDS011;51605;47.040;15.294;2023-01-30T04:55:31;3.15;;;2.85;;
65037;SDS011;51605;47.040;15.294;2023-01-30T04:57:57;2.70;;;2.25;;
65037;SDS011;51605;47.040;15.294;2023-01-30T05:00:23;2.83;;;2.53;;
65037;SDS011;51605;47.040;15.294;2023-01-30T05:02:49;2.20;;;1.60;;
65037;SDS011;51605;47.040;15.294;2023-01-30T05:05:15;2.40;;;1.87;;
65037;SDS011;51605;47.040;15.294;2023-01-30T05:07:41;3.83;;;3.53;;
65037;SDS011;51605;47.040;15.294;2023-01-30T05:10:07;3.97;;;3.58;;
65037;SDS011;51605;47.040;15.294;2023-01-30T05:12:33;2.72;;;2.28;;
65037;SDS011;51605;47.040;15.294;2023-01-30T05:14:59;2.95;;;2.10;;
65037;SDS011;51605;47.040;15.294;2023-01-30T05:17:25;2.20;;;1.80;;
65037;SDS011;51605;47.040;15.294;2023-01-30T05:19:51;3.22;;;2.58;;
65037;SDS011;51605;47.040;15.294;2023-01-30T05:22:16;3.40;;;2.25;;
65037;SDS011;51605;47.040;15.294;2023-01-30T05:24:42;2.22;;;1.70;;
65037;SDS011;51605;47.040;15.294;2023-01-30T05:27:08;2.88;;;2.53;;
65037;SDS011;51605;47.040;15.294;2023-01-30T05:29:33;2.10;;;1.70;;
65037;SDS011;51605;47.040;15.294;2023-01-30T05:31:59;2.40;;;2.00;;
65037;SDS011;51605;47.040;15.294;2023-01-30T05:34:24;2.05;;;1.58;;
65037;SDS011;51605;47.040;15.294;2023-01-30T05:36:50;2.42;;;1.77;;
65037;SDS011;51605;47.040;15.294;2023-01-30T05:39:16;2.75;;;2.33;;
65037;SDS011;51605;47.040;15.294;2023-01-30T05:41:42;4.88;;;4.00;;
65037;SDS011;51605;47.040;15.294;2023-01-30T05:44:07;3.65;;;1.73;;
65037;SDS011;51605;47.040;15.294;2023-01-30T05:46:33;2.40;;;1.67;;
65037;SDS011;51605;47.040;15.294;2023-01-30T05:48:59;2.17;;;1.63;;
65037;SDS011;51605;47.040;15.294;2023-01-30T05:51:25;3.35;;;2.10;;
65037;SDS011;51605;47.040;15.294;2023-01-30T05:53:51;2.10;;;1.60;;
65037;SDS011;51605;47.040;15.294;2023-01-30T05:56:17;3.00;;;1.60;;
65037;SDS011;51605;47.040;15.294;2023-01-30T05:58:48;2.17;;;1.63;;
65037;SDS011;51605;47.040;15.294;2023-01-30T06:01:17;2.00;;;1.50;;
65037;SDS011;51605;47.040;15.294;2023-01-30T06:03:43;3.00;;;1.77;;
65037;SDS011;51605;47.040;15.294;2023-01-30T06:06:09;2.88;;;1.73;;
65037;SDS011;51605;47.040;15.294;2023-01-30T06:08:36;2.50;;;1.90;;
65037;SDS011;51605;47.040;15.294;2023-01-30T06:11:03;2.30;;;1.63;;
65037;SDS011;51605;47.040;15.294;2023-01-30T06:13:30;2.25;;;1.73;;
65037;SDS011;51605;47.040;15.294;2023-01-30T06:15:56;2.08;;;1.73;;
65037;SDS011;51605;47.040;15.294;2023-01-30T06:18:21;1.55;;;1.33;;
65037;SDS011;51605;47.040;15.294;2023-01-30T06:20:51;2.50;;;1.50;;
65037;SDS011;51605;47.040;15.294;2023-01-30T06:23:17;2.15;;;1.45;;
65037;SDS011;51605;47.040;15.294;2023-01-30T06:25:44;2.33;;;1.70;;
65037;SDS011;51605;47.040;15.294;2023-01-30T06:28:11;2.28;;;1.73;;
65037;SDS011;51605;47.040;15.294;2023-01-30T06:30:38;1.90;;;1.55;;
65037;SDS011;51605;47.040;15.294;2023-01-30T06:33:04;1.63;;;1.50;;
65037;SDS011;51605;47.040;15.294;2023-01-30T06:35:29;2.00;;;1.67;;
65037;SDS011;51605;47.040;15.294;2023-01-30T06:37:55;2.38;;;1.83;;
65037;SDS011;51605;47.040;15.294;2023-01-30T06:40:21;2.10;;;1.40;;
65037;SDS011;51605;47.040;15.294;2023-01-30T06:42:47;2.50;;;1.60;;
65037;SDS011;51605;47.040;15.294;2023-01-30T06:45:14;3.17;;;1.42;;
65037;SDS011;51605;47.040;15.294;2023-01-30T06:47:44;1.70;;;1.40;;
65037;SDS011;51605;47.040;15.294;2023-01-30T06:50:10;3.53;;;1.63;;
65037;SDS011;51605;47.040;15.294;2023-01-30T06:52:39;2.33;;;1.77;;
65037;SDS011;51605;47.040;15.294;2023-01-30T06:55:06;2.50;;;1.60;;
65037;SDS011;51605;47.040;15.294;2023-01-30T06:57:33;2.75;;;1.60;;
65037;SDS011;51605;47.040;15.294;2023-01-30T06:59:59;2.38;;;1.80;;
65037;SDS011;51605;47.040;15.294;2023-01-30T07:02:25;2.20;;;1.60;;
65037;SDS011;51605;47.040;15.294;2023-01-30T07:04:54;2.10;;;1.70;;
65037;SDS011;51605;47.040;15.294;2023-01-30T07:07:20;2.10;;;1.60;;
65037;SDS011;51605;47.040;15.294;2023-01-30T07:09:45;2.65;;;1.58;;
65037;SDS011;51605;47.040;15.294;2023-01-30T07:12:11;2.67;;;1.45;;
65037;SDS011;51605;47.040;15.294;2023-01-30T07:14:36;2.47;;;1.50;;
65037;SDS011;51605;47.040;15.294;2023-01-30T07:17:02;2.00;;;1.50;;
65037;SDS011;51605;47.040;15.294;2023-01-30T07:19:27;4.53;;;1.80;;
65037;SDS011;51605;47.040;15.294;2023-01-30T07:21:53;1.73;;;1.30;;
65037;SDS011;51605;47.040;15.294;2023-01-30T07:24:19;2.78;;;1.50;;
65037;SDS011;51605;47.040;15.294;2023-01-30T07:26:46;3.75;;;1.70;;
65037;SDS011;51605;47.040;15.294;2023-01-30T07:29:12;4.30;;;1.60;;
65037;SDS011;51605;47.040;15.294;2023-01-30T07:31:37;2.15;;;1.58;;
65037;SDS011;51605;47.040;15.294;2023-01-30T07:34:03;1.90;;;1.40;;
65037;SDS011;51605;47.040;15.294;2023-01-30T07:36:29;2.35;;;1.50;;
65037;SDS011;51605;47.040;15.294;2023-01-30T07:38:57;2.13;;;1.30;;
65037;SDS011;51605;47.040;15.294;2023-01-30T07:41:23;2.50;;;1.40;;
65037;SDS011;51605;47.040;15.294;2023-01-30T07:43:49;2.88;;;2.05;;
65037;SDS011;51605;47.040;15.294;2023-01-30T07:46:14;2.33;;;1.40;;
65037;SDS011;51605;47.040;15.294;2023-01-30T07:48:42;1.67;;;1.27;;
65037;SDS011;51605;47.040;15.294;2023-01-30T07:51:09;2.30;;;1.50;;
65037;SDS011;51605;47.040;15.294;2023-01-30T07:53:34;2.05;;;1.52;;
65037;SDS011;51605;47.040;15.294;2023-01-30T07:56:05;3.67;;;1.40;;
65037;SDS011;51605;47.040;15.294;2023-01-30T07:58:34;2.35;;;1.20;;
65037;SDS011;51605;47.040;15.294;2023-01-30T08:01:00;3.38;;;2.13;;
65037;SDS011;51605;47.040;15.294;2023-01-30T08:03:26;1.33;;;1.10;;
65037;SDS011;51605;47.040;15.294;2023-01-30T08:05:52;1.70;;;1.20;;
65037;SDS011;51605;47.040;15.294;2023-01-30T08:08:18;2.95;;;1.38;;
65037;SDS011;51605;47.040;15.294;2023-01-30T08:10:44;3.63;;;1.50;;
65037;SDS011;51605;47.040;15.294;2023-01-30T08:13:12;3.90;;;3.50;;
65037;SDS011;51605;47.040;15.294;2023-01-30T08:15:38;1.90;;;1.30;;
65037;SDS011;51605;47.040;15.294;2023-01-30T08:18:04;2.30;;;1.50;;
65037;SDS011;51605;47.040;15.294;2023-01-30T08:22:57;2.00;;;1.40;;
65037;SDS011;51605;47.040;15.294;2023-01-30T08:25:24;2.38;;;1.50;;
65037;SDS011;51605;47.040;15.294;2023-01-30T08:27:50;2.60;;;1.40;;
65037;SDS011;51605;47.040;15.294;2023-01-30T08:30:17;2.17;;;1.45;;
65037;SDS011;51605;47.040;15.294;2023-01-30T08:32:43;1.98;;;1.52;;
65037;SDS011;51605;47.040;15.294;2023-01-30T08:35:09;3.60;;;1.50;;
65037;SDS011;51605;47.040;15.294;2023-01-30T08:37:35;2.42;;;1.38;;
65037;SDS011;51605;47.040;15.294;2023-01-30T08:40:03;4.03;;;3.70;;
65037;SDS011;51605;47.040;15.294;2023-01-30T08:42:29;2.78;;;1.55;;
65037;SDS011;51605;47.040;15.294;2023-01-30T08:44:54;3.22;;;1.45;;
65037;SDS011;51605;47.040;15.294;2023-01-30T08:47:20;2.63;;;1.52;;
65037;SDS011;51605;47.040;15.294;2023-01-30T08:49:46;2.60;;;2.40;;
65037;SDS011;51605;47.040;15.294;2023-01-30T08:52:11;3.35;;;1.70;;
65037;SDS011;51605;47.040;15.294;2023-01-30T08:54:37;4.13;;;1.80;;
65037;SDS011;51605;47.040;15.294;2023-01-30T08:57:02;5.65;;;1.90;;
65037;SDS011;51605;47.040;15.294;2023-01-30T08:59:28;2.95;;;1.52;;
65037;SDS011;51605;47.040;15.294;2023-01-30T09:01:54;2.80;;;1.70;;
65037;SDS011;51605;47.040;15.294;2023-01-30T09:04:20;3.88;;;2.00;;
65037;SDS011;51605;47.040;15.294;2023-01-30T09:06:48;3.03;;;1.60;;
65037;SDS011;51605;47.040;15.294;2023-01-30T09:09:14;2.38;;;1.45;;
65037;SDS011;51605;47.040;15.294;2023-01-30T09:11:40;2.28;;;1.60;;
65037;SDS011;51605;47.040;15.294;2023-01-30T09:14:05;3.10;;;1.60;;
65037;SDS011;51605;47.040;15.294;2023-01-30T09:16:31;2.67;;;1.42;;
65037;SDS011;51605;47.040;15.294;2023-01-30T09:18:56;2.42;;;1.42;;
65037;SDS011;51605;47.040;15.294;2023-01-30T09:21:22;2.60;;;1.77;;
65037;SDS011;51605;47.040;15.294;2023-01-30T09:23:48;2.63;;;1.60;;
65037;SDS011;51605;47.040;15.294;2023-01-30T09:26:14;2.97;;;1.55;;
65037;SDS011;51605;47.040;15.294;2023-01-30T09:28:39;2.38;;;1.50;;
65037;SDS011;51605;47.040;15.294;2023-01-30T09:31:05;2.33;;;1.30;;
65037;SDS011;51605;47.040;15.294;2023-01-30T09:33:31;3.88;;;1.42;;
65037;SDS011;51605;47.040;15.294;2023-01-30T09:35:56;4.47;;;3.35;;
65037;SDS011;51605;47.040;15.294;2023-01-30T09:38:22;2.75;;;2.45;;
65037;SDS011;51605;47.040;15.294;2023-01-30T09:51:36;4.57;;;1.38;;
65037;SDS011;51605;47.040;15.294;2023-01-30T09:56:36;3.10;;;1.40;;
65037;SDS011;51605;47.040;15.294;2023-01-30T09:59:02;3.65;;;2.20;;
65037;SDS011;51605;47.040;15.294;2023-01-30T10:04:34;2.40;;;1.85;;
65037;SDS011;51605;47.040;15.294;2023-01-30T10:07:25;2.83;;;1.50;;
65037;SDS011;51605;47.040;15.294;2023-01-30T10:10:03;2.85;;;1.75;;
65037;SDS011;51605;47.040;15.294;2023-01-30T10:15:55;2.85;;;2.13;;
65037;SDS011;51605;47.040;15.294;2023-01-30T10:27:13;3.28;;;1.70;;
65037;SDS011;51605;47.040;15.294;2023-01-30T10:29:45;8.07;;;7.25;;
65037;SDS011;51605;47.040;15.294;2023-01-30T10:32:17;3.72;;;1.20;;
65037;SDS011;51605;47.040;15.294;2023-01-30T10:34:50;2.33;;;1.38;;
65037;SDS011;51605;47.040;15.294;2023-01-30T10:37:21;3.47;;;1.30;;
65037;SDS011;51605;47.040;15.294;2023-01-30T10:45:39;2.25;;;1.80;;
65037;SDS011;51605;47.040;15.294;2023-01-30T10:50:58;3.65;;;1.13;;
65037;SDS011;51605;47.040;15.294;2023-01-30T11:04:06;1.63;;;1.23;;
65037;SDS011;51605;47.040;15.294;2023-01-30T11:06:44;2.35;;;1.30;;
65037;SDS011;51605;47.040;15.294;2023-01-30T11:09:10;5.28;;;1.58;;
65037;SDS011;51605;47.040;15.294;2023-01-30T11:14:15;1.50;;;1.23;;
65037;SDS011;51605;47.040;15.294;2023-01-30T11:16:43;1.85;;;1.23;;
65037;SDS011;51605;47.040;15.294;2023-01-30T11:19:18;4.18;;;3.17;;
65037;SDS011;51605;47.040;15.294;2023-01-30T11:21:48;2.33;;;1.50;;
65037;SDS011;51605;47.040;15.294;2023-01-30T11:24:19;5.63;;;3.30;;
65037;SDS011;51605;47.040;15.294;2023-01-30T11:26:53;4.15;;;1.50;;
65037;SDS011;51605;47.040;15.294;2023-01-30T11:31:55;2.20;;;1.20;;
65037;SDS011;51605;47.040;15.294;2023-01-30T11:34:30;4.18;;;1.10;;
65037;SDS011;51605;47.040;15.294;2023-01-30T11:42:45;2.55;;;1.20;;
65037;SDS011;51605;47.040;15.294;2023-01-30T11:45:13;1.75;;;1.17;;
65037;SDS011;51605;47.040;15.294;2023-01-30T11:47:45;2.47;;;1.57;;
65037;SDS011;51605;47.040;15.294;2023-01-30T11:50:17;2.92;;;1.30;;
65037;SDS011;51605;47.040;15.294;2023-01-30T11:52:45;2.17;;;1.30;;
65037;SDS011;51605;47.040;15.294;2023-01-30T11:55:17;2.20;;;1.40;;
65037;SDS011;51605;47.040;15.294;2023-01-30T11:57:46;1.45;;;1.20;;
65037;SDS011;51605;47.040;15.294;2023-01-30T12:00:22;3.25;;;1.40;;
65037;SDS011;51605;47.040;15.294;2023-01-30T12:03:01;2.28;;;1.20;;
65037;SDS011;51605;47.040;15.294;2023-01-30T12:05:33;3.55;;;1.40;;
65037;SDS011;51605;47.040;15.294;2023-01-30T12:10:44;4.65;;;1.40;;
65037;SDS011;51605;47.040;15.294;2023-01-30T12:13:19;3.50;;;1.70;;
65037;SDS011;51605;47.040;15.294;2023-01-30T12:16:24;1.67;;;1.27;;
65037;SDS011;51605;47.040;15.294;2023-01-30T12:21:45;2.88;;;1.25;;
65037;SDS011;51605;47.040;15.294;2023-01-30T12:24:29;2.15;;;1.30;;
65037;SDS011;51605;47.040;15.294;2023-01-30T12:27:08;1.40;;;1.20;;
65037;SDS011;51605;47.040;15.294;2023-01-30T12:29:53;1.80;;;1.27;;
65037;SDS011;51605;47.040;15.294;2023-01-30T12:32:26;1.83;;;1.30;;
65037;SDS011;51605;47.040;15.294;2023-01-30T12:34:54;1.30;;;1.10;;
65037;SDS011;51605;47.040;15.294;2023-01-30T12:45:32;1.63;;;1.30;;
65037;SDS011;51605;47.040;15.294;2023-01-30T13:11:55;1.70;;;1.08;;
65037;SDS011;51605;47.040;15.294;2023-01-30T13:16:52;1.58;;;1.02;;
65037;SDS011;51605;47.040;15.294;2023-01-30T13:28:04;5.97;;;5.57;;
65037;SDS011;51605;47.040;15.294;2023-01-30T13:30:35;1.65;;;1.52;;
65037;SDS011;51605;47.040;15.294;2023-01-30T13:33:05;3.13;;;2.83;;
65037;SDS011;51605;47.040;15.294;2023-01-30T13:36:00;5.90;;;4.68;;
65037;SDS011;51605;47.040;15.294;2023-01-30T13:38:39;1.08;;;0.90;;
65037;SDS011;51605;47.040;15.294;2023-01-30T13:41:36;1.10;;;1.00;;
65037;SDS011;51605;47.040;15.294;2023-01-30T13:51:49;2.30;;;1.10;;
65037;SDS011;51605;47.040;15.294;2023-01-30T13:56:48;2.10;;;1.40;;
65037;SDS011;51605;47.040;15.294;2023-01-30T13:59:21;2.40;;;1.05;;
65037;SDS011;51605;47.040;15.294;2023-01-30T14:09:47;2.50;;;1.05;;
65037;SDS011;51605;47.040;15.294;2023-01-30T14:12:29;1.40;;;1.08;;
65037;SDS011;51605;47.040;15.294;2023-01-30T14:15:19;1.48;;;1.10;;
65037;SDS011;51605;47.040;15.294;2023-01-30T14:18:05;4.93;;;1.52;;
65037;SDS011;51605;47.040;15.294;2023-01-30T14:20:45;9.05;;;1.55;;
65037;SDS011;51605;47.040;15.294;2023-01-30T14:23:23;4.38;;;1.70;;
65037;SDS011;51605;47.040;15.294;2023-01-30T14:25:57;3.97;;;1.70;;
65037;SDS011;51605;47.040;15.294;2023-01-30T14:30:49;2.70;;;1.33;;
65037;SDS011;51605;47.040;15.294;2023-01-30T14:38:40;2.45;;;1.50;;
65037;SDS011;51605;47.040;15.294;2023-01-30T14:41:15;2.75;;;1.35;;
65037;SDS011;51605;47.040;15.294;2023-01-30T14:43:50;2.03;;;1.42;;
65037;SDS011;51605;47.040;15.294;2023-01-30T14:51:30;4.18;;;1.38;;
65037;SDS011;51605;47.040;15.294;2023-01-30T14:56:38;6.25;;;1.75;;
65037;SDS011;51605;47.040;15.294;2023-01-30T15:05:01;4.10;;;2.30;;
65037;SDS011;51605;47.040;15.294;2023-01-30T15:07:51;4.00;;;1.50;;
65037;SDS011;51605;47.040;15.294;2023-01-30T15:21:50;3.75;;;1.50;;
65037;SDS011;51605;47.040;15.294;2023-01-30T15:30:17;4.03;;;1.60;;
65037;SDS011;51605;47.040;15.294;2023-01-30T15:33:15;6.97;;;1.77;;
65037;SDS011;51605;47.040;15.294;2023-01-30T15:35:43;7.85;;;1.85;;
65037;SDS011;51605;47.040;15.294;2023-01-30T15:40:50;10.13;;;1.95;;
65037;SDS011;51605;47.040;15.294;2023-01-30T15:43:22;5.05;;;1.65;;
65037;SDS011;51605;47.040;15.294;2023-01-30T15:46:06;7.53;;;1.45;;
65037;SDS011;51605;47.040;15.294;2023-01-30T15:51:27;7.35;;;1.90;;
65037;SDS011;51605;47.040;15.294;2023-01-30T15:53:56;6.32;;;1.70;;
65037;SDS011;51605;47.040;15.294;2023-01-30T15:56:24;4.95;;;1.63;;
65037;SDS011;51605;47.040;15.294;2023-01-30T15:58:51;6.72;;;1.55;;
65037;SDS011;51605;47.040;15.294;2023-01-30T16:01:20;5.95;;;1.77;;
65037;SDS011;51605;47.040;15.294;2023-01-30T16:03:47;4.78;;;1.67;;
65037;SDS011;51605;47.040;15.294;2023-01-30T16:08:56;3.90;;;1.90;;
65037;SDS011;51605;47.040;15.294;2023-01-30T16:11:36;6.33;;;2.10;;
65037;SDS011;51605;47.040;15.294;2023-01-30T16:16:29;4.97;;;1.80;;
65037;SDS011;51605;47.040;15.294;2023-01-30T16:19:01;4.32;;;1.90;;
65037;SDS011;51605;47.040;15.294;2023-01-30T16:21:30;5.57;;;2.00;;
65037;SDS011;51605;47.040;15.294;2023-01-30T16:24:05;3.33;;;1.80;;
65037;SDS011;51605;47.040;15.294;2023-01-30T16:29:07;5.00;;;1.90;;
65037;SDS011;51605;47.040;15.294;2023-01-30T16:31:49;5.30;;;2.05;;
65037;SDS011;51605;47.040;15.294;2023-01-30T16:34:21;5.10;;;2.30;;
65037;SDS011;51605;47.040;15.294;2023-01-30T16:36:49;3.03;;;1.83;;
65037;SDS011;51605;47.040;15.294;2023-01-30T16:39:23;4.40;;;1.90;;
65037;SDS011;51605;47.040;15.294;2023-01-30T16:41:54;4.45;;;1.88;;
65037;SDS011;51605;47.040;15.294;2023-01-30T16:44:30;4.03;;;2.03;;
65037;SDS011;51605;47.040;15.294;2023-01-30T16:47:02;4.07;;;2.25;;
65037;SDS011;51605;47.040;15.294;2023-01-30T16:52:01;5.38;;;2.15;;
65037;SDS011;51605;47.040;15.294;2023-01-30T16:54:30;3.85;;;2.00;;
65037;SDS011;51605;47.040;15.294;2023-01-30T16:56:58;6.40;;;2.30;;
65037;SDS011;51605;47.040;15.294;2023-01-30T16:59:34;6.93;;;2.10;;
65037;SDS011;51605;47.040;15.294;2023-01-30T17:02:03;7.50;;;2.25;;
65037;SDS011;51605;47.040;15.294;2023-01-30T17:04:32;4.95;;;2.42;;
65037;SDS011;51605;47.040;15.294;2023-01-30T17:07:00;3.78;;;2.00;;
65037;SDS011;51605;47.040;15.294;2023-01-30T17:09:38;3.33;;;2.03;;
65037;SDS011;51605;47.040;15.294;2023-01-30T17:17:33;4.30;;;1.90;;
65037;SDS011;51605;47.040;15.294;2023-01-30T17:19:59;4.78;;;2.00;;
65037;SDS011;51605;47.040;15.294;2023-01-30T17:22:24;5.43;;;2.13;;
65037;SDS011;51605;47.040;15.294;2023-01-30T17:24:51;5.82;;;2.15;;
65037;SDS011;51605;47.040;15.294;2023-01-30T17:27:22;4.57;;;2.10;;
65037;SDS011;51605;47.040;15.294;2023-01-30T17:29:50;3.53;;;2.25;;
65037;SDS011;51605;47.040;15.294;2023-01-30T17:32:16;4.45;;;2.10;;
65037;SDS011;51605;47.040;15.294;2023-01-30T17:34:41;5.07;;;2.05;;
65037;SDS011;51605;47.040;15.294;2023-01-30T17:37:17;5.07;;;2.05;;
65037;SDS011;51605;47.040;15.294;2023-01-30T17:39:45;7.50;;;2.20;;
65037;SDS011;51605;47.040;15.294;2023-01-30T17:42:11;6.90;;;2.22;;
65037;SDS011;51605;47.040;15.294;2023-01-30T17:44:37;5.75;;;2.17;;
65037;SDS011;51605;47.040;15.294;2023-01-30T17:47:03;5.47;;;2.15;;
65037;SDS011;51605;47.040;15.294;2023-01-30T17:49:30;6.05;;;2.17;;
65037;SDS011;51605;47.040;15.294;2023-01-30T17:51:56;5.47;;;2.13;;
65037;SDS011;51605;47.040;15.294;2023-01-30T17:54:23;5.50;;;2.83;;
65037;SDS011;51605;47.040;15.294;2023-01-30T17:56:54;5.53;;;2.35;;
65037;SDS011;51605;47.040;15.294;2023-01-30T17:59:28;4.57;;;2.30;;
65037;SDS011;51605;47.040;15.294;2023-01-30T18:01:55;4.78;;;2.53;;
65037;SDS011;51605;47.040;15.294;2023-01-30T18:04:20;3.95;;;2.10;;
65037;SDS011;51605;47.040;15.294;2023-01-30T18:06:47;3.75;;;2.17;;
65037;SDS011;51605;47.040;15.294;2023-01-30T18:09:19;3.90;;;2.20;;
65037;SDS011;51605;47.040;15.294;2023-01-30T18:11:46;4.43;;;2.50;;
65037;SDS011;51605;47.040;15.294;2023-01-30T18:14:13;8.95;;;2.53;;
65037;SDS011;51605;47.040;15.294;2023-01-30T18:16:39;5.72;;;2.30;;
65037;SDS011;51605;47.040;15.294;2023-01-30T18:19:06;4.25;;;2.22;;
65037;SDS011;51605;47.040;15.294;2023-01-30T18:21:33;4.07;;;2.10;;
65037;SDS011;51605;47.040;15.294;2023-01-30T18:24:00;4.78;;;2.20;;
65037;SDS011;51605;47.040;15.294;2023-01-30T18:26:26;4.20;;;2.47;;
65037;SDS011;51605;47.040;15.294;2023-01-30T18:28:52;5.90;;;2.33;;
65037;SDS011;51605;47.040;15.294;2023-01-30T18:31:18;4.93;;;2.30;;
65037;SDS011;51605;47.040;15.294;2023-01-30T18:33:45;6.55;;;2.40;;